Boston, MA (02163)

8:42 PM EDT on September 30, 2016 (GMT -0400)
Huron Village | | Change Station

Elev 62 ft 42.38 °N, 71.13 °W | Updated 1 minute ago

Light Rain
Light Rain
55.2 °F
Feels Like 55.2 °F
N
0.1
Wind Variable Wind from South
Gusts 2.0 mph

Today
High -- | Low -- °F
--% Chance of Precip.
Yesterday
High -- | Low -- °F
Precip. -- in
Pressure 30.39 in
Visibility 3.0 miles
Clouds Mostly Cloudy 1500 ft
Overcast 2100 ft
Dew Point 48 °F
Humidity 77%
Rainfall 0.05 in
Snow Depth Not available.
6:41 AM 6:26 PM
New Moon, 0% visible
METAR KBOS 302354Z 05014KT 3SM -RA BKN015 OVC021 14/13 A3039 RMK AO2 SFC VIS 7 SLP289 P0002 60009 T01390128 10156 20133 56003
Pressure 30.39 in
Visibility 3.0 miles
Clouds Mostly Cloudy 1500 ft
Overcast 2100 ft
Dew Point 48 °F
Humidity 77%
Rainfall 0.05 in
Snow Depth Not available.
6:41 AM 6:26 PM
New Moon, 0% visible
METAR KBOS 302354Z 05014KT 3SM -RA BKN015 OVC021 14/13 A3039 RMK AO2 SFC VIS 7 SLP289 P0002 60009 T01390128 10156 20133 56003

10-Day Weather Forecast

Almanac

Astronomy

Sep. 30, 2016 Rise Set
Actual Time
Civil Twilight
Nautical Twilight
Astronomical Twilight
Moon
Length of Visible Light
Length of Day
Tomorrow will be .
, % of the Moon is Illuminated

Today's Extremes

State Highs State Lows

Community

WunderPhotos

Upload Photos

1,942,838 photos uploaded!

WunderBlog® & News

Nearby

Air Quality

  Air Quality AQ Index Pollutant
Not available.

Snow Depth

Station Depth Elevation

Earthquake Activity

City Distance Mag. Time & Date
Minimum magnitude displayed is 2.5.

Coastal Water Temperatures

Place Temperature

Stations

Nearby Weather Stations

Station Location Temp. Windchill Dew Point Humidity Wind Precip. Elev Updated Type
                   

Watches & Warnings

There are currently no watches in effect.